Catania-Fontanarossa Airport

Airport
ICAO code: 
LICC
IATA Code: 
CTA
Summary
ICAO Region: 
EUR
Territory: 
Location: 
Catania, Sicilia
Serving: 
Catania
Elevation: 
39 ft
Coordinates: 
Aerial View: 
37° 28' 0.412" N, 15° 3' 59.04" E
Metar
Observation
LICC 010250Z 24008KT CAVOK 05/04 Q1022
Station
Catania / Fontanarossa
Date/Time
2021-12-01 02:50:00
Wind direction
240°
Wind speed
08 kts
Lowest cloud amount
clouds and visibility OK
Temperature
5°C
Dew point
4°C
Humidity
93%
QNH
1022 hPa
Weather condition
n/a

Runways

Designator Length Width Surface Rops
8/26 2435 45 ASP Yes/Yes
Airport map: 
Aerial View: 

SKYbrary Partners:

Safety knowledge contributed by: